Time;durP1;ratioP1;P1;durP2;ratioP2;P2;SDS_P1;SDS_P2;PMS_P1;PMS_P2;Temp;Humidity;BMP_temperature;BMP_pressure;BME280_temperature;BME280_humidity;BME280_pressure;Samples;Min_cycle;Max_cycle;Signal;HPM_P1;HPM_P2
2022/04/02 00:01:43;;;;;;;42.90;9.75;;;;;;;17.59;63.63;99789.28;5013922;28;20041;-82
2022/04/02 00:04:09;;;;;;;40.88;9.65;;;;;;;17.58;63.78;99788.41;5011619;28;20033;-82
2022/04/02 00:06:36;;;;;;;35.33;9.73;;;;;;;17.68;63.65;99819.31;5010297;28;20562;-82
2022/04/02 00:09:03;;;;;;;42.72;10.52;;;;;;;17.69;63.79;99806.97;5022608;28;20068;-82
2022/04/02 00:11:29;;;;;;;38.00;9.40;;;;;;;17.60;63.65;99788.44;5029108;28;20030;-82
2022/04/02 00:13:54;;;;;;;38.30;9.15;;;;;;;17.71;63.85;99813.16;4995021;28;20035;-82
2022/04/02 00:16:20;;;;;;;39.35;9.38;;;;;;;17.73;63.76;99805.25;5007348;28;20088;-81
2022/04/02 00:18:49;;;;;;;46.75;9.52;;;;;;;17.72;63.96;99807.03;5018909;28;20487;-82
2022/04/02 00:21:15;;;;;;;37.20;9.43;;;;;;;17.72;63.96;99807.03;5029627;28;20025;-82
2022/04/02 00:23:43;;;;;;;39.90;10.02;;;;;;;17.70;63.99;99807.00;5030797;28;20072;-82
2022/04/02 00:26:11;;;;;;;38.85;9.15;;;;;;;17.63;64.00;99793.72;4994423;28;20519;-82
2022/04/02 00:28:38;;;;;;;42.05;9.48;;;;;;;17.70;64.07;99800.84;5018202;28;20476;-82
2022/04/02 00:31:05;;;;;;;30.67;9.40;;;;;;;17.69;64.22;99799.97;5029590;28;20033;-83
2022/04/02 00:33:30;;;;;;;38.15;9.50;;;;;;;17.67;64.25;99799.06;5020280;28;20083;-82
2022/04/02 00:35:56;;;;;;;26.33;8.73;;;;;;;17.70;64.41;99806.13;5011488;28;20022;-82
2022/04/02 00:38:21;;;;;;;32.67;8.82;;;;;;;17.72;64.13;99804.38;5023282;28;20172;-83
2022/04/02 00:40:47;;;;;;;26.85;8.10;;;;;;;17.61;64.28;99779.63;5010163;28;20030;-83
2022/04/02 00:43:42;;;;;;;30.70;8.52;;;;;;;17.71;64.32;99805.25;5011242;28;20034;-83
2022/04/02 00:46:10;;;;;;;20.80;7.28;;;;;;;17.50;64.23;99766.31;5008188;28;20641;-83
2022/04/02 00:48:36;;;;;;;29.02;8.68;;;;;;;17.70;64.46;99808.78;5016343;28;20524;-83
2022/04/02 00:51:05;;;;;;;33.60;8.85;;;;;;;17.70;64.50;99808.78;5029442;28;20491;-84
2022/04/02 00:53:33;;;;;;;27.92;8.40;;;;;;;17.64;64.50;99800.78;5027973;28;20033;-83
2022/04/02 00:55:59;;;;;;;28.75;7.97;;;;;;;17.49;64.41;99761.94;5030072;28;20037;-83
2022/04/02 00:58:25;;;;;;;23.92;7.50;;;;;;;17.67;64.46;99795.53;5016256;28;20117;-83
2022/04/02 01:00:51;;;;;;;26.00;8.63;;;;;;;17.56;64.63;99773.44;5011702;28;20033;-83
2022/04/02 01:03:17;;;;;;;24.20;8.18;;;;;;;17.68;64.48;99792.91;5014693;28;20038;-83
2022/04/02 01:05:43;;;;;;;30.08;8.35;;;;;;;17.58;64.59;99769.03;5023064;28;20036;-84
2022/04/02 01:08:09;;;;;;;24.00;7.63;;;;;;;17.46;64.66;99748.69;5022560;28;20029;-83
2022/04/02 01:10:38;;;;;;;24.67;8.05;;;;;;;17.69;64.69;99780.56;5032683;28;20029;-83
2022/04/02 01:13:05;;;;;;;26.50;7.63;;;;;;;17.67;64.85;99774.41;5032733;28;20561;-83
2022/04/02 01:15:31;;;;;;;27.90;8.15;;;;;;;17.68;64.51;99782.34;5031066;28;20026;-83
2022/04/02 01:17:57;;;;;;;30.25;7.75;;;;;;;17.54;64.76;99757.56;5033039;28;20033;-83
2022/04/02 01:20:23;;;;;;;26.67;8.60;;;;;;;17.70;64.76;99771.81;5016505;28;20468;-84
2022/04/02 01:22:49;;;;;;;33.55;8.55;;;;;;;17.66;64.59;99770.88;5032728;28;20025;-83
2022/04/02 01:25:16;;;;;;;41.83;8.93;;;;;;;17.59;64.74;99776.06;5021885;28;20057;-83
2022/04/02 01:27:43;;;;;;;35.53;8.98;;;;;;;17.55;64.56;99759.34;5028788;28;20449;-83
2022/04/02 01:30:09;;;;;;;39.60;9.38;;;;;;;17.54;64.63;99754.03;5023065;28;20086;-83
2022/04/02 01:32:35;;;;;;;;;;;;;;;17.72;64.62;99775.34;5023060;28;20120;-83
2022/04/02 01:35:01;;;;;;;37.80;8.00;;;;;;;17.68;64.41;99768.25;5032194;28;20020;-83
2022/04/02 01:37:26;;;;;;;33.85;8.43;;;;;;;17.67;64.79;99769.13;5018530;28;20465;-83
2022/04/02 01:39:52;;;;;;;35.63;8.77;;;;;;;17.54;64.73;99746.13;5019462;28;20034;-83
2022/04/02 01:42:24;;;;;;;31.40;8.45;;;;;;;17.50;64.65;99739.94;5030418;28;20033;-83
2022/04/02 01:44:52;;;;;;;30.50;8.77;;;;;;;17.66;64.61;99764.72;5017933;28;20517;-83
2022/04/02 01:47:19;;;;;;;26.77;7.80;;;;;;;17.68;64.73;99781.47;5027613;28;20065;-83
2022/04/02 01:49:45;;;;;;;27.10;7.72;;;;;;;17.67;65.01;99785.88;5032525;28;20025;-83
2022/04/02 01:52:12;;;;;;;27.77;8.10;;;;;;;17.51;64.97;99762.81;5028915;28;20044;-83
2022/04/02 01:54:38;;;;;;;33.40;8.35;;;;;;;17.67;64.84;99798.16;5031538;28;20033;-83
2022/04/02 01:57:04;;;;;;;33.05;8.88;;;;;;;17.65;65.09;99784.06;5018595;28;20038;-83
2022/04/02 01:59:29;;;;;;;25.30;7.97;;;;;;;17.56;65.13;99765.50;5028172;28;20048;-83
2022/04/02 02:01:55;;;;;;;26.00;8.30;;;;;;;17.66;64.98;99781.44;5024437;28;20449;-83
2022/04/02 02:04:20;;;;;;;29.48;8.35;;;;;;;17.66;64.81;99780.56;5033378;28;20034;-83
2022/04/02 02:06:46;;;;;;;31.65;8.20;;;;;;;17.47;64.93;99743.44;5048397;28;20048;-84
2022/04/02 02:09:12;;;;;;;25.88;7.97;;;;;;;17.30;64.69;99711.59;5033241;28;20029;-84
2022/04/02 02:11:38;;;;;;;29.30;8.55;;;;;;;17.64;64.85;99775.25;5028063;28;20032;-83
2022/04/02 02:14:04;;;;;;;28.52;7.88;;;;;;;17.62;64.98;99768.22;5021596;28;20511;-84
2022/04/02 02:16:29;;;;;;;27.80;8.30;;;;;;;17.42;64.78;99755.72;5014139;28;20025;-84
2022/04/02 02:18:55;;;;;;;28.88;8.00;;;;;;;17.63;64.86;99796.34;5023677;28;20033;-84
2022/04/02 02:21:23;;;;;;;33.00;7.63;;;;;;;17.64;64.92;99796.38;5012370;28;20034;-83
2022/04/02 02:23:49;;;;;;;31.02;8.13;;;;;;;17.58;64.92;99783.13;5013480;28;20084;-84
2022/04/02 02:26:15;;;;;;;26.95;7.82;;;;;;;17.49;64.95;99781.28;5013265;28;20452;-84
2022/04/02 02:28:41;;;;;;;32.85;8.02;;;;;;;17.50;64.71;99787.44;5013301;28;20026;-82
2022/04/02 02:31:07;;;;;;;28.88;7.55;;;;;;;17.26;64.66;99752.00;5012913;28;20037;-82
2022/04/02 02:36:23;;;;;;;29.60;7.55;;;;;;;17.46;64.66;99783.00;5016197;28;20513;-82
2022/04/02 02:38:49;;;;;;;30.48;7.20;;;;;;;17.56;64.94;99805.97;5032776;28;20398;-83
2022/04/02 02:41:14;;;;;;;37.03;8.25;;;;;;;17.45;64.96;99781.25;5028434;28;20493;-82
2022/04/02 02:43:40;;;;;;;35.15;7.88;;;;;;;17.59;64.89;99807.75;5012876;28;20502;-82
2022/04/02 02:46:05;;;;;;;36.53;8.00;;;;;;;17.60;65.05;99805.13;5028753;28;20539;-82
2022/04/02 02:48:31;;;;;;;36.22;9.30;;;;;;;17.61;65.12;99811.28;5032025;28;20090;-83
2022/04/02 02:50:57;;;;;;;26.10;7.57;;;;;;;17.38;65.06;99782.94;5031731;28;20055;-83
2022/04/02 02:53:23;;;;;;;33.35;7.82;;;;;;;17.53;65.14;99816.53;5012770;28;20056;-83
2022/04/02 02:55:50;;;;;;;32.55;7.32;;;;;;;17.60;65.03;99828.03;5022782;28;20112;-84
2022/04/02 02:58:25;;;;;;;33.63;7.53;;;;;;;17.61;65.06;99833.31;5004688;28;20601;-83
2022/04/02 03:00:56;;;;;;;25.88;7.05;;;;;;;17.59;65.10;99837.72;5020186;28;20029;-83
2022/04/02 03:03:22;;;;;;;35.88;7.43;;;;;;;17.57;65.13;99831.53;5013234;28;20026;-83
2022/04/02 03:05:48;;;;;;;26.92;7.60;;;;;;;17.58;65.23;99832.41;5011349;28;20581;-83
2022/04/02 03:08:16;;;;;;;27.75;7.55;;;;;;;17.58;65.26;99828.00;5011279;28;20108;-83
2022/04/02 03:10:42;;;;;;;28.35;7.75;;;;;;;17.57;65.31;99842.09;5011949;28;20080;-84
2022/04/02 03:13:08;;;;;;;29.48;7.38;;;;;;;17.58;65.32;99842.97;5028854;28;20094;-84
2022/04/02 03:15:33;;;;;;;23.83;6.97;;;;;;;17.32;65.19;99805.75;5030370;28;20037;-84
2022/04/02 03:18:06;;;;;;;20.17;6.97;;;;;;;17.48;65.46;99834.03;5011045;28;20104;-83
2022/04/02 03:20:33;;;;;;;23.75;7.07;;;;;;;17.57;65.28;99849.09;5010676;28;20048;-83
2022/04/02 03:22:59;;;;;;;28.88;7.20;;;;;;;17.57;65.38;99862.28;5026824;28;20022;-82
2022/04/02 03:25:24;;;;;;;28.75;7.30;;;;;;;17.30;65.47;99811.88;5031449;28;20025;-83
2022/04/02 03:27:50;;;;;;;23.58;7.15;;;;;;;17.42;65.33;99831.34;5011266;28;20025;-82
2022/04/02 03:30:18;;;;;;;21.08;7.35;;;;;;;17.57;65.45;99857.91;5013095;28;20033;-82
2022/04/02 03:32:44;;;;;;;23.00;7.20;;;;;;;17.45;65.39;99849.88;5023489;28;20041;-83
2022/04/02 03:35:14;;;;;;;24.08;6.93;;;;;;;17.14;65.55;99787.94;5014989;28;20037;-83
2022/04/02 03:37:41;;;;;;;27.55;6.65;;;;;;;17.54;65.73;99857.88;5011976;28;20056;-83
2022/04/02 03:40:09;;;;;;;24.60;7.18;;;;;;;17.54;65.62;99864.91;5011063;28;20461;-83
2022/04/02 03:42:38;;;;;;;26.98;7.05;;;;;;;17.54;65.41;99865.78;5017456;28;20513;-83
2022/04/02 03:45:05;;;;;;;27.88;6.85;;;;;;;17.54;65.47;99865.78;5011933;28;20060;-83
2022/04/02 03:47:31;;;;;;;30.95;7.03;;;;;;;17.53;65.38;99863.16;5022316;28;20033;-83
2022/04/02 03:49:57;;;;;;;;;;;;;;;17.58;65.44;99857.03;5011027;28;20065;-83
2022/04/02 03:52:24;;;;;;;28.80;6.65;;;;;;;17.25;65.37;99818.84;5020142;28;19970;-83
2022/04/02 03:54:49;;;;;;;23.40;6.78;;;;;;;17.40;65.39;99847.19;5029123;28;20026;-83
2022/04/02 03:57:15;;;;;;;26.08;6.78;;;;;;;17.52;65.50;99869.28;5021191;28;20072;-83
2022/04/02 03:59:42;;;;;;;30.85;7.45;;;;;;;17.36;65.53;99841.84;5004148;28;20457;-83
2022/04/02 04:02:08;;;;;;;31.30;7.35;;;;;;;17.44;65.60;99867.47;5018885;28;20503;-82
2022/04/02 04:04:35;;;;;;;22.42;6.80;;;;;;;17.52;65.62;99887.75;5019704;28;20410;-83
2022/04/02 04:07:01;;;;;;;22.40;6.60;;;;;;;17.14;65.58;99828.38;5030059;28;20116;-81
2022/04/02 04:09:27;;;;;;;23.92;6.90;;;;;;;17.41;65.57;99872.69;5027734;28;20113;-81
2022/04/02 04:11:54;;;;;;;23.30;6.38;;;;;;;17.46;65.62;99873.63;4998239;28;20189;-81
2022/04/02 04:14:26;;;;;;;20.73;6.40;;;;;;;17.51;65.75;99886.88;5011468;28;20620;-81
2022/04/02 04:16:52;;;;;;;24.48;6.82;;;;;;;17.50;65.63;99879.81;5011356;28;20060;-81
2022/04/02 04:19:18;;;;;;;35.75;7.25;;;;;;;17.52;65.55;99885.13;5011413;28;20032;-80
2022/04/02 04:21:44;;;;;;;27.88;6.90;;;;;;;17.49;65.39;99885.97;5023620;28;20563;-80
2022/04/02 04:24:10;;;;;;;39.78;7.07;;;;;;;17.49;65.53;99888.63;5011119;28;20042;-81
2022/04/02 04:26:37;;;;;;;31.88;7.10;;;;;;;17.47;65.32;99901.78;5024466;28;20129;-80
2022/04/02 04:29:02;;;;;;;30.67;7.55;;;;;;;17.43;65.40;99897.34;4997628;28;20030;-81
2022/04/02 04:31:28;;;;;;;31.73;8.40;;;;;;;17.43;65.40;99893.81;5006658;28;20124;-81
2022/04/02 04:33:54;;;;;;;36.40;7.43;;;;;;;17.50;65.49;99907.13;5028752;28;20037;-81
2022/04/02 04:36:19;;;;;;;38.83;8.05;;;;;;;17.44;65.47;99899.13;5019727;28;20109;-80
2022/04/02 04:38:46;;;;;;;40.03;8.27;;;;;;;17.46;65.53;99912.31;5014928;28;20116;-82
2022/04/02 04:41:12;;;;;;;27.23;7.88;;;;;;;17.41;65.62;99906.13;5008701;28;20030;-81
2022/04/02 04:43:41;;;;;;;38.08;8.55;;;;;;;17.41;65.60;99900.84;4995599;28;20487;-82
2022/04/02 04:46:07;;;;;;;43.10;8.38;;;;;;;17.45;65.60;99922.00;4995891;28;20054;-82
2022/04/02 04:48:33;;;;;;;31.60;7.43;;;;;;;17.47;65.61;99916.75;4997896;28;20026;-81
2022/04/02 04:50:58;;;;;;;50.53;8.68;;;;;;;17.36;65.49;99906.06;4999833;28;20383;-82
2022/04/02 04:53:24;;;;;;;36.33;8.55;;;;;;;17.41;65.60;99916.66;4998772;28;20042;-81
2022/04/02 04:55:49;;;;;;;44.70;8.45;;;;;;;17.41;65.72;99916.66;4995760;28;20034;-81
2022/04/02 04:58:15;;;;;;;47.35;7.82;;;;;;;17.44;65.62;99928.16;4995678;28;20510;-82
2022/04/02 05:00:41;;;;;;;47.10;9.10;;;;;;;17.43;65.68;99933.41;5004318;28;20029;-80
2022/04/02 05:03:08;;;;;;;42.22;7.65;;;;;;;17.40;65.71;99936.00;5001627;28;20038;-81
2022/04/02 05:05:35;;;;;;;50.25;8.73;;;;;;;17.40;65.69;99936.00;5011941;28;20438;-81
2022/04/02 05:08:01;;;;;;;38.60;8.60;;;;;;;17.44;65.62;99944.00;5033941;28;20396;-82
2022/04/02 05:10:27;;;;;;;33.60;7.82;;;;;;;17.40;65.58;99939.53;5032415;28;20026;-81
2022/04/02 05:12:53;;;;;;;38.97;8.38;;;;;;;17.43;65.60;99949.25;5019604;28;20064;-82
2022/04/02 05:15:19;;;;;;;43.35;8.60;;;;;;;17.42;65.65;99948.38;5033910;28;20061;-81
2022/04/02 05:17:45;;;;;;;40.47;7.97;;;;;;;17.39;65.68;99936.88;5033555;28;20033;-81
2022/04/02 05:20:13;;;;;;;;;;;;;;;17.51;65.54;99942.31;5032842;28;20025;-81
2022/04/02 05:22:39;;;;;;;37.28;7.88;;;;;;;17.45;65.71;99951.03;5030109;28;19920;-81
2022/04/02 05:25:05;;;;;;;47.10;8.65;;;;;;;17.43;65.91;99944.84;5015550;28;20435;-81
2022/04/02 05:27:32;;;;;;;43.10;8.68;;;;;;;17.34;65.66;99938.59;5015266;28;20115;-81
2022/04/02 05:29:58;;;;;;;43.95;8.13;;;;;;;17.39;65.79;99945.66;5013499;28;20112;-81
2022/04/02 05:32:24;;;;;;;40.72;8.20;;;;;;;17.34;65.76;99939.47;5030459;28;20495;-81
2022/04/02 05:34:50;;;;;;;36.03;7.95;;;;;;;17.41;65.94;99951.84;5032248;28;20033;-81
2022/04/02 05:37:15;;;;;;;44.13;9.23;;;;;;;17.41;65.90;99961.53;5027463;28;20104;-82
2022/04/02 05:39:43;;;;;;;40.35;8.35;;;;;;;17.38;65.97;99958.88;5013857;28;20030;-81
2022/04/02 05:42:12;;;;;;;41.72;8.15;;;;;;;17.38;65.90;99959.75;5013911;28;20402;-81
2022/04/02 05:44:38;;;;;;;41.63;8.10;;;;;;;17.40;65.88;99967.66;5029640;28;20568;-82
2022/04/02 05:47:05;;;;;;;45.58;8.30;;;;;;;17.39;65.90;99966.78;5013257;28;20033;-81
2022/04/02 05:49:31;;;;;;;34.80;8.02;;;;;;;17.36;65.93;99957.97;5022640;28;20030;-81
2022/04/02 05:51:57;;;;;;;50.00;9.13;;;;;;;17.32;65.86;99959.66;5013686;28;20041;-81
2022/04/02 05:54:23;;;;;;;38.58;8.15;;;;;;;17.39;65.85;99974.69;5011307;28;20120;-81
2022/04/02 05:56:49;;;;;;;41.88;8.02;;;;;;;17.36;65.98;99976.44;5004243;28;20077;-81
2022/04/02 05:59:15;;;;;;;40.75;7.55;;;;;;;17.40;65.89;99981.78;5011375;28;20367;-81
2022/04/02 06:01:40;;;;;;;38.92;8.13;;;;;;;17.42;65.91;99979.13;5013549;28;20032;-82
2022/04/02 06:04:06;;;;;;;40.80;7.13;;;;;;;17.39;65.84;99984.38;5012550;28;20118;-81
2022/04/02 06:06:32;;;;;;;41.25;8.10;;;;;;;17.40;65.94;99991.41;5011996;28;20457;-81
2022/04/02 06:08:58;;;;;;;38.10;8.10;;;;;;;17.32;65.80;99980.78;5013341;28;20034;-81
2022/04/02 06:11:24;;;;;;;42.92;8.73;;;;;;;17.39;65.80;99989.66;5011484;28;20112;-81
2022/04/02 06:13:50;;;;;;;45.00;8.23;;;;;;;17.41;65.66;99999.38;4992896;28;20502;-82
2022/04/02 06:16:16;;;;;;;37.88;8.18;;;;;;;17.41;65.78;99999.38;4993853;28;20030;-80
2022/04/02 06:18:43;;;;;;;;;;;;;;;17.42;65.62;99998.50;4996405;28;20546;-82
2022/04/02 06:21:08;;;;;;;44.60;8.07;;;;;;;17.40;65.72;100001.97;4997018;28;19924;-81
2022/04/02 06:23:34;;;;;;;40.92;8.02;;;;;;;17.34;65.63;99994.88;4998359;28;20022;-81
2022/04/02 06:26:00;;;;;;;39.45;8.35;;;;;;;17.24;65.75;99983.28;5008452;28;20030;-83
2022/04/02 06:28:25;;;;;;;40.95;8.52;;;;;;;17.39;65.67;100016.06;5013596;28;20103;-82
2022/04/02 06:30:51;;;;;;;36.03;8.20;;;;;;;17.38;65.70;100017.81;5032842;28;20040;-83
2022/04/02 06:33:17;;;;;;;41.35;7.53;;;;;;;17.27;65.81;99987.72;5007071;28;20038;-81
2022/04/02 06:35:46;;;;;;;34.80;8.27;;;;;;;17.32;65.91;99995.72;5007449;28;20483;-83
2022/04/02 06:38:13;;;;;;;42.45;8.10;;;;;;;17.26;65.77;99985.97;5011110;28;20495;-82
2022/04/02 06:40:39;;;;;;;38.40;7.65;;;;;;;17.20;65.82;99976.19;5012248;28;20037;-82
2022/04/02 06:43:05;;;;;;;39.35;7.90;;;;;;;17.30;65.64;99990.41;5013091;28;20026;-82
2022/04/02 06:45:30;;;;;;;44.13;8.27;;;;;;;17.25;65.64;99987.72;4992727;28;20038;-81
2022/04/02 06:47:56;;;;;;;36.58;7.43;;;;;;;17.31;65.65;99994.81;5011970;28;20029;-82
2022/04/02 06:50:22;;;;;;;42.17;7.82;;;;;;;17.31;65.68;100010.66;5013004;28;20029;-82
2022/04/02 06:52:49;;;;;;;32.63;7.68;;;;;;;17.21;65.76;100003.50;5001475;28;20049;-82
2022/04/02 06:55:23;;;;;;;37.08;7.07;;;;;;;17.23;65.68;100001.72;5011434;28;20462;-83
2022/04/02 06:57:56;;;;;;;30.10;6.68;;;;;;;17.27;65.52;100001.81;4997860;28;20050;-82
2022/04/02 07:00:22;;;;;;;37.00;7.93;;;;;;;17.30;65.33;100008.91;5010431;28;20546;-82
2022/04/02 07:02:51;;;;;;;35.45;6.95;;;;;;;17.27;65.34;99998.28;5016431;28;20424;-82
2022/04/02 07:05:20;;;;;;;37.28;6.53;;;;;;;17.30;65.38;100000.97;5016095;28;20102;-82
2022/04/02 07:07:47;;;;;;;29.20;6.70;;;;;;;17.23;65.25;100002.66;5023965;28;20022;-83
2022/04/02 07:10:13;;;;;;;;;;;;;;;17.32;64.82;100003.66;5011562;28;20517;-83
2022/04/02 07:12:39;;;;;;;30.30;6.13;;;;;;;17.30;64.70;100006.25;5011029;28;19924;-82
2022/04/02 07:15:05;;;;;;;32.70;7.55;;;;;;;17.34;64.36;100008.06;5021343;28;20494;-82
2022/04/02 07:17:31;;;;;;;28.80;6.55;;;;;;;17.20;64.53;99999.06;5003776;28;20503;-81
2022/04/02 07:19:59;;;;;;;27.15;6.18;;;;;;;17.27;64.16;99999.19;4991443;28;20084;-82
2022/04/02 07:22:25;;;;;;;29.85;5.65;;;;;;;17.36;64.09;100013.38;5000203;28;20041;-82
2022/04/02 07:24:52;;;;;;;;;;;;;;;17.44;63.81;100025.81;5023949;28;20505;-82
2022/04/02 07:27:22;;;;;;;26.05;6.13;;;;;;;17.35;63.72;100012.47;5008057;28;20279;-83
2022/04/02 07:29:49;;;;;;;29.10;6.32;;;;;;;17.33;63.75;100008.03;5010428;28;20068;-82
2022/04/02 07:32:15;;;;;;;27.13;5.65;;;;;;;17.40;63.72;100020.44;5009537;28;20068;-82
2022/04/02 07:34:40;;;;;;;30.50;6.03;;;;;;;17.30;64.16;100014.16;5011780;28;20026;-81
2022/04/02 07:37:24;;;;;;;23.73;5.43;;;;;;;17.32;64.49;100030.03;5004792;28;20039;-81
2022/04/02 07:40:05;;;;;;;26.88;5.50;;;;;;;17.38;63.70;100031.00;5006547;28;20038;-82
2022/04/02 07:42:53;;;;;;;26.17;5.30;;;;;;;17.42;63.47;100024.91;5007955;28;20495;-82
2022/04/02 07:45:27;;;;;;;26.23;5.28;;;;;;;17.34;63.27;100025.66;5011741;28;20037;-82
2022/04/02 07:47:57;;;;;;;28.33;5.30;;;;;;;17.39;63.85;100040.69;5011127;28;20080;-82
2022/04/02 07:50:25;;;;;;;23.02;4.88;;;;;;;17.37;64.08;100017.78;5008633;28;20037;-82
2022/04/02 07:52:53;;;;;;;22.33;5.22;;;;;;;17.43;63.57;100031.94;4994372;28;20030;-82
2022/04/02 07:55:20;;;;;;;21.17;4.95;;;;;;;17.35;63.70;100033.59;4992378;28;20034;-82
2022/04/02 07:57:51;;;;;;;22.15;4.43;;;;;;;17.44;63.69;100028.47;4998108;28;20018;-82
2022/04/02 08:00:21;;;;;;;20.85;4.40;;;;;;;17.43;63.69;100038.97;4994746;28;20031;-82
2022/04/02 08:02:48;;;;;;;21.48;4.38;;;;;;;17.46;63.51;100033.72;4999018;28;20049;-81
2022/04/02 08:05:15;;;;;;;21.20;4.90;;;;;;;17.43;64.13;100049.53;4990659;28;20579;-82
2022/04/02 08:07:49;;;;;;;20.35;4.35;;;;;;;17.46;63.25;100037.28;4999350;28;20065;-81
2022/04/02 08:10:20;;;;;;;21.45;4.85;;;;;;;17.50;62.73;100031.19;5012121;28;20406;-82
2022/04/02 08:12:46;;;;;;;20.15;4.45;;;;;;;17.47;63.68;100017.06;5015236;28;20034;-82
2022/04/02 08:15:16;;;;;;;;;;;;;;;17.50;63.30;100023.25;5018147;28;20026;-82
2022/04/02 08:17:44;;;;;;;16.05;4.20;;;;;;;17.42;63.72;100022.28;5003201;28;20369;-82
2022/04/02 08:20:10;;;;;;;16.45;4.35;;;;;;;17.31;63.47;99992.19;5001184;28;20471;-82
2022/04/02 08:22:36;;;;;;;15.23;4.07;;;;;;;17.37;63.77;100013.38;5015499;28;20022;-82
2022/04/02 08:25:03;;;;;;;19.75;4.95;;;;;;;17.45;63.98;100021.41;5015342;28;20026;-83
2022/04/02 08:28:03;;;;;;;15.63;4.00;;;;;;;17.46;63.31;100028.47;5015456;28;20506;-83
2022/04/02 08:30:33;;;;;;;19.40;4.70;;;;;;;17.43;64.16;100025.78;5015361;28;20033;-83
2022/04/02 08:32:59;;;;;;;16.35;4.68;;;;;;;17.44;64.12;100027.53;5002371;28;20054;-84
2022/04/02 08:35:37;;;;;;;;;;;;;;;17.55;64.06;100025.97;4996683;28;20573;-84
2022/04/02 08:38:32;;;;;;;21.83;4.80;;;;;;;17.42;64.10;100019.63;5002412;28;19956;-82
2022/04/02 08:41:16;;;;;;;22.80;4.50;;;;;;;17.46;63.91;100031.09;4996721;28;20681;-83
2022/04/02 08:44:09;;;;;;;13.35;4.32;;;;;;;17.45;64.18;100024.94;4995766;28;20034;-84
2022/04/02 08:46:54;;;;;;;14.48;4.45;;;;;;;17.54;63.49;100025.94;4994311;28;20085;-83
2022/04/02 08:49:34;;;;;;;14.23;3.88;;;;;;;17.43;63.39;100017.88;5007663;28;20089;-83
2022/04/02 08:52:17;;;;;;;19.27;4.85;;;;;;;17.24;63.47;99998.25;5013188;28;20176;-83
2022/04/02 08:54:57;;;;;;;22.55;4.50;;;;;;;17.47;63.65;100025.84;5013519;28;20105;-84
2022/04/02 08:57:38;;;;;;;14.93;3.90;;;;;;;17.44;63.73;100028.47;5024054;28;20104;-83
2022/04/02 09:00:13;;;;;;;16.00;3.78;;;;;;;17.42;63.33;100016.06;5014186;28;20054;-82
2022/04/02 09:03:36;;;;;;;12.27;3.90;;;;;;;17.36;63.38;100003.72;5013903;28;20033;-82
2022/04/02 09:06:22;;;;;;;13.75;4.05;;;;;;;17.50;63.14;100007.44;5010892;28;20040;-82
2022/04/02 09:09:07;;;;;;;13.70;3.90;;;;;;;17.49;63.36;100018.84;4993833;28;20038;-83
2022/04/02 09:11:52;;;;;;;13.25;3.97;;;;;;;17.54;64.34;100013.63;5004022;28;20124;-83
2022/04/02 09:14:27;;;;;;;15.68;4.03;;;;;;;17.40;64.06;100000.25;5014279;28;20124;-82
2022/04/02 09:17:02;;;;;;;15.77;4.20;;;;;;;17.43;63.54;100016.09;5014408;28;20431;-83
2022/04/02 09:19:54;;;;;;;18.10;4.40;;;;;;;17.52;63.51;100015.34;5014468;28;20048;-83
2022/04/02 09:22:36;;;;;;;10.30;3.38;;;;;;;17.61;62.22;100026.06;5013050;28;20419;-83
2022/04/02 09:25:39;;;;;;;15.40;4.15;;;;;;;17.60;63.17;100013.69;5014576;28;20026;-83
2022/04/02 09:28:10;;;;;;;15.35;3.95;;;;;;;17.56;63.28;100024.19;5001777;28;20041;-83
2022/04/02 09:31:00;;;;;;;11.15;3.20;;;;;;;17.53;62.74;100009.22;5019808;28;20037;-82
2022/04/02 09:33:32;;;;;;;15.60;3.80;;;;;;;17.49;62.59;100010.03;5026459;28;20025;-83
2022/04/02 09:36:21;;;;;;;12.25;3.47;;;;;;;17.50;62.27;100018.00;5032739;28;20037;-82
2022/04/02 09:39:05;;;;;;;14.27;3.40;;;;;;;17.54;63.46;100008.34;5016214;28;20495;-83
2022/04/02 09:41:53;;;;;;;11.50;3.38;;;;;;;17.57;62.65;100011.03;5013727;28;20048;-84
2022/04/02 09:44:56;;;;;;;9.25;2.80;;;;;;;17.55;63.61;100004.84;5012798;28;20100;-84
2022/04/02 09:47:39;;;;;;;10.65;3.42;;;;;;;17.46;62.40;99994.16;5014446;28;20029;-86
2022/04/02 09:50:16;;;;;;;10.43;3.40;;;;;;;17.51;62.85;100000.38;5011744;28;20029;-85
2022/04/02 09:52:55;;;;;;;10.18;3.28;;;;;;;17.66;62.54;99997.06;5003695;28;20565;-84
2022/04/02 09:55:24;;;;;;;10.52;3.25;;;;;;;17.68;61.17;100004.13;5025923;28;20084;-84
2022/04/02 09:57:58;;;;;;;16.88;3.45;;;;;;;17.65;60.61;100001.47;5026082;28;20024;-83
2022/04/02 10:00:32;;;;;;;10.57;2.70;;;;;;;17.65;60.56;99997.91;5032167;28;20029;-83
2022/04/02 10:03:53;;;;;;;11.98;2.92;;;;;;;17.58;60.76;99996.94;5032460;28;20510;-84
2022/04/02 10:06:25;;;;;;;11.05;3.10;;;;;;;17.62;61.89;100011.97;4999803;28;20058;-84
2022/04/02 10:09:02;;;;;;;10.75;2.88;;;;;;;17.61;62.50;99996.09;5015538;28;20028;-84
2022/04/02 10:11:30;;;;;;;9.30;2.75;;;;;;;17.64;60.74;100012.00;5025804;28;20041;-84
2022/04/02 10:14:00;;;;;;;9.18;2.67;;;;;;;17.50;60.81;99973.13;5046468;28;20021;-84
2022/04/02 10:16:27;;;;;;;11.23;2.65;;;;;;;17.63;61.62;99995.28;5010073;28;20022;-84
2022/04/02 10:18:55;;;;;;;11.77;2.70;;;;;;;17.33;62.45;99945.59;5014723;28;20029;-84
2022/04/02 10:21:21;;;;;;;10.77;2.58;;;;;;;17.73;60.31;99996.25;5019841;28;20021;-84
2022/04/02 10:24:18;;;;;;;6.90;2.67;;;;;;;17.78;61.53;100001.59;5011477;28;20422;-84
2022/04/02 10:26:48;;;;;;;9.57;2.58;;;;;;;17.72;62.67;99983.94;5011287;28;20510;-84
2022/04/02 10:29:21;;;;;;;10.15;2.47;;;;;;;17.57;62.02;99970.53;4995058;28;20422;-84
2022/04/02 10:32:04;;;;;;;8.68;2.55;;;;;;;17.65;62.92;99990.00;5011217;28;20029;-84
2022/04/02 10:34:39;;;;;;;8.40;2.47;;;;;;;17.72;63.23;99989.22;5015263;28;20037;-84
2022/04/02 10:37:10;;;;;;;5.95;2.00;;;;;;;17.71;61.87;99990.06;5011775;28;20038;-84
2022/04/02 10:39:44;;;;;;;6.82;2.22;;;;;;;17.64;62.24;99968.00;4995484;28;20434;-83
2022/04/02 10:42:17;;;;;;;5.75;2.53;;;;;;;17.62;62.20;99974.13;5011747;28;20419;-83
2022/04/02 10:44:58;;;;;;;7.20;2.25;;;;;;;17.75;61.38;99999.81;5016614;28;20127;-83
2022/04/02 10:47:27;;;;;;;5.93;2.20;;;;;;;17.61;62.75;99964.41;5015919;28;20533;-83
2022/04/02 10:50:00;;;;;;;9.13;2.05;;;;;;;17.60;62.44;99960.03;5010440;28;20410;-83
2022/04/02 10:52:26;;;;;;;11.80;2.72;;;;;;;17.69;62.84;99970.69;5031299;28;20069;-84
2022/04/02 10:54:52;;;;;;;5.95;2.53;;;;;;;17.45;61.71;99934.31;5027217;28;20030;-84
2022/04/02 10:57:18;;;;;;;7.18;2.53;;;;;;;17.82;60.20;99987.56;5011505;28;20042;-84
2022/04/02 10:59:48;;;;;;;7.82;2.70;;;;;;;17.60;60.29;99947.69;5011340;28;20038;-83
2022/04/02 11:02:30;;;;;;;8.85;2.35;;;;;;;17.78;62.19;99970.81;5012808;28;20080;-83
2022/04/02 11:05:03;;;;;;;7.18;2.25;;;;;;;17.82;62.94;99979.63;5011576;28;20026;-83
2022/04/02 11:07:40;;;;;;;5.05;2.00;;;;;;;17.76;61.10;99969.00;5019989;28;20040;-84
2022/04/02 11:10:06;;;;;;;;;;;;;;;17.81;61.64;99969.97;5032658;28;20077;-84
2022/04/02 11:12:38;;;;;;;10.30;2.70;;;;;;;17.86;61.11;99970.91;5032489;28;19913;-84
2022/04/02 11:15:11;;;;;;;10.23;2.40;;;;;;;17.87;63.07;99963.03;5030419;28;20082;-84
2022/04/02 11:17:41;;;;;;;9.40;2.45;;;;;;;17.83;62.81;99970.91;5003987;28;20022;-84
2022/04/02 11:20:10;;;;;;;11.73;3.05;;;;;;;17.88;61.36;99971.81;4992642;28;20088;-84
2022/04/02 11:26:20;;;;;;;9.05;2.83;;;;;;;17.74;62.19;99952.25;5009693;28;20043;-84
2022/04/02 11:29:09;;;;;;;9.55;2.88;;;;;;;17.92;60.96;99972.75;5010506;28;20033;-85
2022/04/02 11:31:45;;;;;;;10.45;3.28;;;;;;;17.72;63.02;99951.38;4996433;28;20030;-85
2022/04/02 11:34:13;;;;;;;6.80;2.72;;;;;;;17.36;62.05;99881.44;5004510;28;20060;-85
2022/04/02 11:36:46;;;;;;;8.52;2.42;;;;;;;17.49;63.09;99901.81;5013583;28;20038;-84
2022/04/02 11:39:22;;;;;;;13.70;2.67;;;;;;;17.78;63.18;99948.78;4994782;28;20030;-84
2022/04/02 11:41:54;;;;;;;7.97;2.35;;;;;;;17.60;61.60;99901.94;4993618;28;20049;-84
2022/04/02 11:44:23;;;;;;;10.38;2.40;;;;;;;17.77;62.72;99920.63;4993682;28;20030;-84
2022/04/02 11:47:00;;;;;;;8.85;2.40;;;;;;;18.01;61.64;99965.84;4993753;28;20042;-84